createdAt,value
2023-04-26T00:02:23.892Z,73.78
2023-04-26T00:04:59.067Z,73.99
2023-04-26T00:07:31.168Z,74.16
2023-04-26T00:10:03.119Z,74.06
2023-04-26T00:12:35.001Z,73.85
2023-04-26T00:15:07.970Z,73.90
2023-04-26T00:17:39.855Z,74.04
2023-04-26T00:20:13.645Z,74.16
2023-04-26T00:22:45.551Z,74.03
2023-04-26T00:25:17.537Z,73.70
2023-04-26T00:27:50.058Z,73.97
2023-04-26T00:30:22.551Z,74.12
2023-04-26T00:32:54.863Z,74.26
2023-04-26T00:35:26.952Z,74.24
2023-04-26T00:37:59.713Z,73.89
2023-04-26T00:40:35.515Z,73.90
2023-04-26T00:43:08.583Z,73.34
2023-04-26T00:45:40.808Z,73.03
2023-04-26T00:48:12.187Z,72.89
2023-04-26T00:50:44.646Z,73.12
2023-04-26T00:53:17.188Z,73.14
2023-04-26T00:55:51.563Z,73.15
2023-04-26T00:58:23.602Z,73.19
2023-04-26T01:00:56.944Z,73.14
2023-04-26T01:03:30.124Z,73.01
2023-04-26T01:06:02.360Z,73.12
2023-04-26T01:08:34.367Z,72.85
2023-04-26T01:11:07.404Z,72.74
2023-04-26T01:13:39.667Z,72.99
2023-04-26T01:16:10.547Z,73.44
2023-04-26T01:18:43.150Z,73.09
2023-04-26T01:21:20.919Z,73.18
2023-04-26T01:23:53.127Z,73.13
2023-04-26T01:26:23.471Z,72.92
2023-04-26T01:28:55.369Z,72.59
2023-04-26T01:31:27.278Z,72.47
2023-04-26T01:33:59.077Z,72.35
2023-04-26T01:36:30.978Z,72.15
2023-04-26T01:39:04.903Z,72.17
2023-04-26T01:41:36.862Z,72.24
2023-04-26T01:44:08.956Z,72.53
2023-04-26T01:46:39.442Z,72.55
2023-04-26T01:49:11.230Z,72.42
2023-04-26T01:51:43.110Z,72.50
2023-04-26T01:54:14.922Z,72.52
2023-04-26T01:56:46.734Z,72.41
2023-04-26T01:59:18.795Z,72.36
2023-04-26T02:01:51.053Z,72.46
2023-04-26T02:04:24.190Z,72.67
2023-04-26T02:06:57.192Z,72.81
2023-04-26T02:09:29.313Z,72.97
2023-04-26T02:12:01.135Z,72.93
2023-04-26T02:14:33.447Z,73.07
2023-04-26T02:17:04.541Z,72.89
2023-04-26T02:19:36.819Z,73.17
2023-04-26T02:22:08.979Z,73.15
2023-04-26T02:24:39.224Z,73.09
2023-04-26T02:27:11.272Z,73.36
2023-04-26T02:29:44.789Z,73.53
2023-04-26T02:32:17.342Z,73.66
2023-04-26T02:34:47.962Z,73.49
2023-04-26T02:37:19.695Z,73.62
2023-04-26T02:39:54.087Z,73.62
2023-04-26T02:42:26.803Z,73.45
2023-04-26T02:44:58.980Z,73.76
2023-04-26T02:47:30.869Z,73.86
2023-04-26T02:50:06.421Z,73.83
2023-04-26T02:52:38.967Z,73.78
2023-04-26T02:55:11.935Z,73.79
2023-04-26T02:57:43.819Z,73.86
2023-04-26T03:00:16.700Z,73.84
2023-04-26T03:02:48.602Z,73.84
2023-04-26T03:05:21.278Z,73.84
2023-04-26T03:07:53.263Z,73.79
2023-04-26T03:10:25.005Z,73.65
2023-04-26T03:12:56.943Z,73.84
2023-04-26T03:15:28.845Z,73.80
2023-04-26T03:18:01.001Z,73.68
2023-04-26T03:20:31.730Z,73.70
2023-04-26T03:23:04.065Z,73.94
2023-04-26T03:25:36.962Z,74.08
2023-04-26T03:28:09.238Z,74.27
2023-04-26T03:30:41.310Z,74.46
2023-04-26T03:33:13.812Z,74.68
2023-04-26T03:35:44.494Z,74.82
2023-04-26T03:38:17.304Z,75.01
2023-04-26T03:40:50.162Z,75.32
2023-04-26T03:43:21.902Z,75.60
2023-04-26T03:45:54.051Z,75.76
2023-04-26T03:48:25.966Z,76.02
2023-04-26T03:50:58.205Z,76.05
2023-04-26T03:53:30.193Z,76.03
2023-04-26T03:56:02.066Z,75.72
2023-04-26T03:58:36.364Z,75.47
2023-04-26T04:01:08.755Z,75.18
2023-04-26T04:03:41.560Z,74.92
2023-04-26T04:06:14.125Z,74.64
2023-04-26T04:08:48.227Z,74.17
2023-04-26T04:11:20.451Z,73.92
2023-04-26T04:13:50.703Z,74.14
2023-04-26T04:16:22.827Z,73.95
2023-04-26T04:18:55.688Z,73.69
2023-04-26T04:21:27.707Z,73.64
2023-04-26T04:24:00.692Z,73.12
2023-04-26T04:26:32.470Z,72.63
2023-04-26T04:29:09.360Z,71.45
2023-04-26T04:31:43.043Z,70.30
2023-04-26T04:34:16.556Z,69.51
2023-04-26T04:36:49.097Z,68.50
2023-04-26T04:39:21.161Z,67.92
2023-04-26T04:41:54.491Z,67.17
2023-04-26T04:44:27.136Z,66.38
2023-04-26T04:46:59.835Z,65.69
2023-04-26T04:49:31.631Z,65.21
2023-04-26T04:52:03.476Z,64.32
2023-04-26T04:54:35.634Z,63.19
2023-04-26T04:57:07.870Z,62.62
2023-04-26T04:59:40.859Z,62.25
2023-04-26T05:02:11.964Z,61.59
2023-04-26T05:04:44.322Z,61.33
2023-04-26T05:07:16.638Z,61.39
2023-04-26T05:09:47.113Z,60.91
2023-04-26T05:12:19.085Z,60.34
2023-04-26T05:14:51.230Z,59.87
2023-04-26T05:17:23.390Z,59.54
2023-04-26T05:19:55.584Z,58.80
2023-04-26T05:22:27.765Z,58.56
2023-04-26T05:24:58.093Z,57.87
2023-04-26T05:27:31.199Z,56.81
2023-04-26T05:30:40.791Z,56.50
2023-04-26T05:33:23.451Z,56.32
2023-04-26T05:36:12.455Z,55.74
2023-04-26T05:38:44.244Z,54.33
2023-04-26T05:41:16.185Z,53.74
2023-04-26T05:43:48.868Z,53.46
2023-04-26T05:46:21.097Z,52.60
2023-04-26T05:48:53.180Z,52.82
2023-04-26T05:51:24.906Z,52.48
2023-04-26T05:53:57.381Z,52.88
2023-04-26T05:56:29.498Z,52.32
2023-04-26T05:59:00.187Z,52.23
2023-04-26T06:01:32.113Z,51.86
2023-04-26T06:04:04.279Z,51.45
2023-04-26T06:06:41.464Z,50.45
2023-04-26T06:09:13.629Z,50.20
2023-04-26T06:11:45.474Z,50.77
2023-04-26T06:14:29.263Z,50.15
2023-04-26T06:17:02.688Z,49.49
2023-04-26T06:19:32.939Z,49.11
2023-04-26T06:22:04.709Z,48.74
2023-04-26T06:24:36.326Z,49.17
2023-04-26T06:27:09.331Z,48.55
2023-04-26T06:29:41.717Z,48.25
2023-04-26T06:32:13.457Z,47.63
2023-04-26T06:34:45.761Z,47.82
2023-04-26T06:37:18.221Z,48.02
2023-04-26T06:39:50.168Z,48.69
2023-04-26T06:42:22.758Z,49.66
2023-04-26T06:45:08.904Z,49.78
2023-04-26T06:47:41.366Z,48.88
2023-04-26T06:50:14.180Z,48.62
2023-04-26T06:52:45.943Z,48.40
2023-04-26T06:55:17.736Z,48.51
2023-04-26T06:57:50.699Z,47.49
2023-04-26T07:00:23.561Z,47.86
2023-04-26T07:02:55.483Z,48.13
2023-04-26T07:05:27.486Z,47.81
2023-04-26T07:07:59.235Z,47.44
2023-04-26T07:10:32.097Z,46.00
2023-04-26T07:13:09.404Z,46.12
2023-04-26T07:15:42.349Z,46.06
2023-04-26T07:18:14.430Z,45.32
2023-04-26T07:20:46.318Z,45.62
2023-04-26T07:23:18.035Z,45.43
2023-04-26T07:25:50.049Z,45.47
2023-04-26T07:28:20.352Z,45.29
2023-04-26T07:30:52.213Z,44.18
2023-04-26T07:33:22.993Z,44.13
2023-04-26T07:35:59.793Z,44.38
2023-04-26T07:38:31.725Z,44.35
2023-04-26T07:41:04.678Z,43.97
2023-04-26T07:43:36.434Z,44.87
2023-04-26T07:46:08.522Z,44.48
2023-04-26T07:48:40.438Z,44.79
2023-04-26T07:51:11.188Z,43.83
2023-04-26T07:53:43.738Z,44.11
2023-04-26T07:56:15.684Z,44.28
2023-04-26T07:58:46.117Z,44.51
2023-04-26T08:01:18.062Z,44.91
2023-04-26T08:03:50.225Z,44.46
2023-04-26T08:06:22.940Z,43.39
2023-04-26T08:08:54.718Z,42.46
2023-04-26T08:11:26.808Z,41.85
2023-04-26T08:13:58.785Z,40.95
2023-04-26T08:16:29.130Z,40.65
2023-04-26T08:19:03.053Z,40.58
2023-04-26T08:21:34.924Z,39.51
2023-04-26T08:24:07.597Z,38.96
2023-04-26T08:26:39.468Z,39.39
2023-04-26T08:29:09.860Z,40.67
2023-04-26T08:31:41.946Z,40.91
2023-04-26T08:34:13.740Z,41.93
2023-04-26T08:36:46.001Z,43.07
2023-04-26T08:39:18.555Z,43.27
2023-04-26T08:41:54.853Z,42.64
2023-04-26T08:44:29.373Z,42.27
2023-04-26T08:47:11.270Z,42.00
2023-04-26T08:49:45.229Z,40.38
2023-04-26T08:52:22.991Z,39.14
2023-04-26T08:54:57.617Z,38.97
2023-04-26T08:57:32.763Z,39.46
2023-04-26T09:00:06.968Z,39.24
2023-04-26T09:02:41.524Z,38.68
2023-04-26T09:05:14.173Z,37.42
2023-04-26T09:07:48.144Z,38.22
2023-04-26T09:10:22.650Z,39.25
2023-04-26T09:12:56.120Z,38.19
2023-04-26T09:15:28.629Z,37.99
2023-04-26T09:18:18.816Z,37.91
2023-04-26T09:21:04.999Z,37.88
2023-04-26T09:23:37.522Z,39.32
2023-04-26T09:26:22.785Z,39.41
2023-04-26T09:29:13.969Z,40.65
2023-04-26T09:31:49.558Z,39.80
2023-04-26T09:34:21.807Z,39.92
2023-04-26T09:36:56.923Z,39.56
2023-04-26T09:39:35.100Z,38.58
2023-04-26T09:42:07.906Z,38.47
2023-04-26T09:44:40.420Z,38.04
2023-04-26T09:47:13.390Z,36.88
2023-04-26T09:49:50.699Z,36.53
2023-04-26T09:52:22.540Z,35.80
2023-04-26T09:54:53.592Z,35.87
2023-04-26T09:57:25.427Z,35.47
2023-04-26T09:59:57.608Z,35.17
2023-04-26T10:02:30.091Z,35.44
2023-04-26T10:05:03.211Z,35.79
2023-04-26T10:07:37.054Z,36.03
2023-04-26T10:10:11.531Z,36.61
2023-04-26T10:12:44.719Z,37.44
2023-04-26T10:15:18.198Z,35.97
2023-04-26T10:17:52.031Z,35.73
2023-04-26T10:20:25.907Z,36.09
2023-04-26T10:23:01.593Z,36.18
2023-04-26T10:25:40.719Z,36.03
2023-04-26T10:28:12.743Z,36.44
2023-04-26T10:30:58.715Z,36.54
2023-04-26T10:33:31.668Z,37.04
2023-04-26T10:36:09.185Z,37.31
2023-04-26T10:38:42.640Z,38.21
2023-04-26T10:41:32.271Z,39.04
2023-04-26T10:44:41.237Z,40.20
2023-04-26T10:47:25.889Z,40.65
2023-04-26T10:50:06.172Z,40.15
2023-04-26T10:52:39.697Z,39.88
2023-04-26T10:55:11.619Z,38.56
2023-04-26T10:57:52.079Z,38.87
2023-04-26T11:00:34.099Z,38.71
2023-04-26T11:03:12.763Z,39.70
2023-04-26T11:05:57.299Z,42.00
2023-04-26T11:08:32.015Z,42.85
2023-04-26T11:11:12.171Z,43.75
2023-04-26T11:13:45.236Z,42.06
2023-04-26T11:16:18.405Z,41.34
2023-04-26T11:18:50.613Z,41.07
2023-04-26T11:21:24.242Z,40.58
2023-04-26T11:23:59.148Z,39.41
2023-04-26T11:26:36.653Z,40.17
2023-04-26T11:29:16.062Z,41.25
2023-04-26T11:31:54.354Z,41.69
2023-04-26T11:34:32.764Z,39.83
2023-04-26T11:37:06.302Z,40.36
2023-04-26T11:39:39.090Z,40.11
2023-04-26T11:42:13.986Z,39.68
2023-04-26T11:44:47.654Z,41.15
2023-04-26T11:47:20.812Z,41.81
2023-04-26T11:49:53.129Z,42.53
2023-04-26T11:52:25.434Z,42.78
2023-04-26T11:55:07.790Z,43.92
2023-04-26T11:57:40.334Z,44.52
2023-04-26T12:00:14.857Z,46.60
2023-04-26T12:02:50.907Z,48.91
2023-04-26T12:05:28.372Z,48.62
2023-04-26T12:08:01.572Z,47.66
2023-04-26T12:10:35.099Z,47.24
2023-04-26T12:13:07.281Z,46.24
2023-04-26T12:15:40.183Z,47.72
2023-04-26T12:18:13.450Z,47.84
2023-04-26T12:20:47.292Z,47.11
2023-04-26T12:23:19.742Z,47.74
2023-04-26T12:26:02.128Z,46.38
2023-04-26T12:28:34.064Z,45.01
2023-04-26T12:31:07.574Z,44.52
2023-04-26T12:33:39.546Z,43.89
2023-04-26T12:36:13.301Z,43.59
2023-04-26T12:38:45.194Z,42.74
2023-04-26T12:41:17.292Z,41.18
2023-04-26T12:43:47.761Z,40.94
2023-04-26T12:46:19.609Z,41.62
2023-04-26T12:48:51.470Z,41.85
2023-04-26T12:51:23.309Z,41.85
2023-04-26T12:53:55.167Z,41.98
2023-04-26T12:56:27.086Z,42.36
2023-04-26T12:58:58.898Z,42.70
2023-04-26T13:01:33.651Z,43.00
2023-04-26T13:04:06.175Z,44.14
2023-04-26T13:06:38.267Z,45.00
2023-04-26T13:09:12.796Z,44.92
2023-04-26T13:11:44.924Z,44.33
2023-04-26T13:14:15.181Z,43.70
2023-04-26T13:16:51.282Z,43.00
2023-04-26T13:19:26.569Z,42.57
2023-04-26T13:21:58.379Z,41.03
2023-04-26T13:24:30.288Z,41.80
2023-04-26T13:27:02.591Z,42.57
2023-04-26T13:29:35.320Z,44.80
2023-04-26T13:32:08.304Z,45.39
2023-04-26T13:34:41.204Z,45.08
2023-04-26T13:37:13.260Z,44.67
2023-04-26T13:39:46.455Z,43.08
2023-04-26T13:42:18.536Z,41.99
2023-04-26T13:44:49.102Z,42.10
2023-04-26T13:47:21.152Z,40.15
2023-04-26T13:49:53.251Z,39.98
2023-04-26T13:52:23.662Z,39.78
2023-04-26T13:54:55.668Z,40.66
2023-04-26T13:57:27.709Z,40.96
2023-04-26T13:59:57.998Z,42.56
2023-04-26T14:02:29.940Z,41.21
2023-04-26T14:05:00.699Z,40.57
2023-04-26T14:07:32.774Z,40.00
2023-04-26T14:10:05.307Z,40.86
2023-04-26T14:12:37.352Z,40.98
2023-04-26T14:15:11.902Z,41.08
2023-04-26T14:17:46.792Z,40.31
2023-04-26T14:20:19.230Z,40.55
2023-04-26T14:22:51.245Z,41.29
2023-04-26T14:25:23.111Z,41.80
2023-04-26T14:27:55.648Z,42.28
2023-04-26T14:30:28.424Z,41.77
2023-04-26T14:33:00.249Z,41.12
2023-04-26T14:35:32.285Z,41.15
2023-04-26T14:38:03.026Z,41.70
2023-04-26T14:40:35.301Z,43.01
2023-04-26T14:43:07.243Z,42.62
2023-04-26T14:45:44.618Z,43.74
2023-04-26T14:48:17.203Z,44.62
2023-04-26T14:50:49.306Z,45.12
2023-04-26T14:53:19.741Z,44.75
2023-04-26T14:55:58.218Z,45.14
2023-04-26T14:58:30.000Z,45.02
2023-04-26T15:01:02.607Z,45.20
2023-04-26T15:03:35.118Z,44.81
2023-04-26T15:06:09.680Z,44.21
2023-04-26T15:08:41.899Z,43.83
2023-04-26T15:11:12.204Z,44.55
2023-04-26T15:13:43.989Z,44.34
2023-04-26T15:16:16.884Z,43.57
2023-04-26T15:18:48.922Z,43.52
2023-04-26T15:21:23.779Z,43.54
2023-04-26T15:23:56.443Z,43.91
2023-04-26T15:26:31.978Z,44.57
2023-04-26T15:29:04.986Z,44.65
2023-04-26T15:31:38.510Z,44.93
2023-04-26T15:34:11.321Z,45.05
2023-04-26T15:36:44.080Z,44.88
2023-04-26T15:39:15.768Z,44.61
2023-04-26T15:41:49.033Z,44.42
2023-04-26T15:44:36.223Z,44.25
2023-04-26T15:47:10.775Z,45.13
2023-04-26T15:49:42.966Z,45.84
2023-04-26T15:52:17.037Z,46.44
2023-04-26T15:54:49.370Z,47.19
2023-04-26T15:57:21.111Z,47.73
2023-04-26T15:59:52.140Z,47.89
2023-04-26T16:02:24.182Z,47.35
2023-04-26T16:04:54.869Z,47.55
2023-04-26T16:07:26.968Z,47.48
2023-04-26T16:09:58.877Z,47.83
2023-04-26T16:12:31.513Z,48.13
2023-04-26T16:15:03.386Z,48.01
2023-04-26T16:17:35.445Z,45.61
2023-04-26T16:20:07.385Z,44.39
2023-04-26T16:22:39.284Z,44.53
2023-04-26T16:25:11.981Z,44.95
2023-04-26T16:27:42.284Z,45.79
2023-04-26T16:30:15.167Z,46.09
2023-04-26T16:32:46.985Z,46.48
2023-04-26T16:35:19.241Z,46.10
2023-04-26T16:37:51.594Z,46.90
2023-04-26T16:40:24.607Z,47.81
2023-04-26T16:42:56.560Z,47.99
2023-04-26T16:45:28.529Z,48.39
2023-04-26T16:48:00.413Z,48.55
2023-04-26T16:50:32.608Z,49.04
2023-04-26T16:53:04.592Z,49.24
2023-04-26T16:55:36.446Z,49.09
2023-04-26T16:58:09.844Z,48.89
2023-04-26T17:00:43.387Z,49.64
2023-04-26T17:03:15.874Z,49.55
2023-04-26T17:05:49.245Z,49.22
2023-04-26T17:08:22.562Z,49.38
2023-04-26T17:10:54.715Z,48.77
2023-04-26T17:13:29.557Z,48.10
2023-04-26T17:16:01.994Z,48.28
2023-04-26T17:18:33.828Z,48.40
2023-04-26T17:21:07.491Z,48.71
2023-04-26T17:23:39.394Z,48.77
2023-04-26T17:26:11.301Z,49.04
2023-04-26T17:28:43.259Z,49.23
2023-04-26T17:31:15.119Z,49.11
2023-04-26T17:33:46.926Z,49.23
2023-04-26T17:36:19.547Z,49.74
2023-04-26T17:38:51.302Z,49.73
2023-04-26T17:41:24.173Z,50.01
2023-04-26T17:43:55.879Z,50.44
2023-04-26T17:46:27.819Z,50.81
2023-04-26T17:48:59.836Z,50.80
2023-04-26T17:51:31.673Z,51.13
2023-04-26T17:54:04.060Z,51.23
2023-04-26T17:56:34.634Z,51.28
2023-04-26T17:59:06.635Z,51.41
2023-04-26T18:01:38.605Z,51.61
2023-04-26T18:04:11.134Z,51.80
2023-04-26T18:06:44.051Z,52.06
2023-04-26T18:09:16.037Z,52.26
2023-04-26T18:11:48.103Z,52.56
2023-04-26T18:14:20.129Z,52.91
2023-04-26T18:16:52.121Z,53.22
2023-04-26T18:19:23.927Z,53.53
2023-04-26T18:21:55.875Z,53.95
2023-04-26T18:24:30.401Z,54.17
2023-04-26T18:27:02.666Z,54.62
2023-04-26T18:29:34.973Z,54.71
2023-04-26T18:32:07.214Z,54.87
2023-04-26T18:34:40.108Z,54.95
2023-04-26T18:37:37.993Z,55.08
2023-04-26T18:40:20.099Z,55.44
2023-04-26T18:42:52.388Z,55.68
2023-04-26T18:45:24.316Z,55.95
2023-04-26T18:47:56.837Z,56.22
2023-04-26T18:50:29.240Z,56.07
2023-04-26T18:53:01.597Z,56.42
2023-04-26T18:55:34.235Z,56.77
2023-04-26T18:58:06.550Z,57.07
2023-04-26T19:00:39.213Z,57.29
2023-04-26T19:03:11.302Z,57.47
2023-04-26T19:05:45.848Z,57.44
2023-04-26T19:08:18.402Z,57.85
2023-04-26T19:10:50.722Z,57.94
2023-04-26T19:13:22.765Z,58.14
2023-04-26T19:15:53.234Z,58.49
2023-04-26T19:18:25.320Z,58.83
2023-04-26T19:20:55.663Z,58.91
2023-04-26T19:23:28.552Z,59.22
2023-04-26T19:26:08.270Z,59.43
2023-04-26T19:28:40.933Z,59.46
2023-04-26T19:31:16.513Z,59.44
2023-04-26T19:33:48.976Z,59.54
2023-04-26T19:36:21.082Z,59.53
2023-04-26T19:38:53.094Z,59.73
2023-04-26T19:41:24.961Z,59.51
2023-04-26T19:43:56.493Z,59.64
2023-04-26T19:46:28.631Z,59.88
2023-04-26T19:49:01.015Z,60.31
2023-04-26T19:51:34.486Z,60.63
2023-04-26T19:54:07.013Z,60.69
2023-04-26T19:56:39.787Z,60.50
2023-04-26T19:59:14.119Z,60.58
2023-04-26T20:01:47.123Z,60.61
2023-04-26T20:04:19.514Z,60.69
2023-04-26T20:06:52.593Z,60.71
2023-04-26T20:09:24.406Z,60.88
2023-04-26T20:11:56.244Z,61.27
2023-04-26T20:14:30.326Z,61.37
2023-04-26T20:17:02.566Z,61.58
2023-04-26T20:19:34.602Z,61.94
2023-04-26T20:22:06.692Z,62.22
2023-04-26T20:24:38.387Z,62.09
2023-04-26T20:27:10.547Z,62.56
2023-04-26T20:29:41.253Z,62.59
2023-04-26T20:32:54.791Z,62.91
2023-04-26T20:35:32.684Z,63.03
2023-04-26T20:38:04.644Z,63.09
2023-04-26T20:40:36.499Z,63.07
2023-04-26T20:43:08.329Z,63.17
2023-04-26T20:45:41.031Z,63.49
2023-04-26T20:48:13.029Z,63.63
2023-04-26T20:50:44.910Z,63.87
2023-04-26T20:53:17.168Z,63.90
2023-04-26T20:55:47.648Z,63.90
2023-04-26T20:58:19.501Z,63.83
2023-04-26T21:00:52.668Z,63.91
2023-04-26T21:03:24.745Z,63.91
2023-04-26T21:05:55.178Z,63.92
2023-04-26T21:08:27.115Z,63.88
2023-04-26T21:10:58.962Z,64.01
2023-04-26T21:13:32.147Z,64.09
2023-04-26T21:16:04.027Z,64.13
2023-04-26T21:18:36.045Z,63.95
2023-04-26T21:21:07.987Z,64.33
2023-04-26T21:23:39.937Z,64.49
2023-04-26T21:26:11.831Z,64.53
2023-04-26T21:28:43.612Z,64.53
2023-04-26T21:31:15.688Z,64.68
2023-04-26T21:33:45.994Z,64.69
2023-04-26T21:36:17.940Z,64.85
2023-04-26T21:38:49.840Z,64.85
2023-04-26T21:41:22.755Z,64.98
2023-04-26T21:43:55.198Z,64.96
2023-04-26T21:46:27.294Z,64.95
2023-04-26T21:48:57.795Z,65.08
2023-04-26T21:51:29.709Z,65.13
2023-04-26T21:54:01.544Z,65.38
2023-04-26T21:56:33.952Z,65.56
2023-04-26T21:59:05.705Z,65.75
2023-04-26T22:01:37.413Z,65.87
2023-04-26T22:04:09.455Z,65.82
2023-04-26T22:06:39.926Z,65.82
2023-04-26T22:09:12.043Z,65.73
2023-04-26T22:11:44.270Z,65.96
2023-04-26T22:14:16.158Z,66.10
2023-04-26T22:16:48.270Z,66.18
2023-04-26T22:19:18.549Z,66.03
2023-04-26T22:21:50.636Z,66.10
2023-04-26T22:24:20.960Z,66.34
2023-04-26T22:26:52.738Z,66.61
2023-04-26T22:29:24.666Z,66.80
2023-04-26T22:31:56.646Z,66.29
2023-04-26T22:34:27.057Z,66.57
2023-04-26T22:37:06.120Z,66.52
2023-04-26T22:39:45.213Z,66.77
2023-04-26T22:42:17.077Z,66.91
2023-04-26T22:44:48.929Z,67.13
2023-04-26T22:47:22.912Z,67.15
2023-04-26T22:49:54.669Z,67.19
2023-04-26T22:52:31.651Z,67.29
2023-04-26T22:55:03.952Z,67.21
2023-04-26T22:57:35.740Z,67.47
2023-04-26T23:00:11.902Z,67.43
2023-04-26T23:02:43.946Z,67.69
2023-04-26T23:05:16.293Z,68.01
2023-04-26T23:07:48.190Z,67.90
2023-04-26T23:10:20.037Z,67.91
2023-04-26T23:12:53.203Z,68.25
2023-04-26T23:15:25.527Z,68.29
2023-04-26T23:17:57.461Z,68.28
2023-04-26T23:20:29.562Z,68.48
2023-04-26T23:23:01.626Z,68.69
2023-04-26T23:25:33.492Z,68.94
2023-04-26T23:28:05.631Z,68.89
2023-04-26T23:30:37.492Z,69.02
2023-04-26T23:33:09.499Z,69.34
2023-04-26T23:35:43.816Z,69.57
2023-04-26T23:38:15.718Z,69.76
2023-04-26T23:40:47.683Z,69.78
2023-04-26T23:43:19.705Z,70.12
2023-04-26T23:45:51.616Z,70.37
2023-04-26T23:48:23.509Z,70.41
2023-04-26T23:50:55.336Z,70.77
2023-04-26T23:53:27.687Z,71.02
2023-04-26T23:55:59.459Z,71.03
2023-04-26T23:58:32.067Z,71.11
